N12973 KMSP-
Flight info
| Callsign | N12973 |
|---|---|
| Flight time | N/A |
| Altitude | VFR/035 |
| Route | SOUTH |
| Aircraft | C172/L-DOV/C |
Departure
| Time | 2026-05-07 05:27 |
|---|---|
| Airport | Minneapolis–Saint Paul International Airport / Wold–Chamberlain Field (KMSP) |
Arrival
| Time | N/A |
|---|---|
| Airport | - |
| Time | Latitude | Longitude | Altitude | Speed | Heading |
|---|---|---|---|---|---|
| 2026-05-07 05:19 | 44.87801 | -93.21680 | 820 ft | 0 kts | 39° |
| 2026-05-07 05:21 | 44.87822 | -93.21630 | 820 ft | 12 kts | 52° |
| 2026-05-07 05:22 | 44.87852 | -93.21596 | 820 ft | 7 kts | 2° |
| 2026-05-07 05:22 | 44.87931 | -93.21750 | 820 ft | 32 kts | 301° |
| 2026-05-07 05:22 | 44.88073 | -93.22073 | 823 ft | 37 kts | 299° |
| 2026-05-07 05:22 | 44.88189 | -93.22346 | 826 ft | 31 kts | 295° |
| 2026-05-07 05:23 | 44.88312 | -93.22625 | 826 ft | 36 kts | 301° |
| 2026-05-07 05:23 | 44.88445 | -93.22943 | 828 ft | 34 kts | 302° |
| 2026-05-07 05:23 | 44.88494 | -93.23194 | 833 ft | 19 kts | 292° |
| 2026-05-07 05:23 | 44.88575 | -93.23386 | 836 ft | 23 kts | 304° |
| 2026-05-07 05:24 | 44.88660 | -93.23634 | 833 ft | 28 kts | 306° |
| 2026-05-07 05:24 | 44.88757 | -93.23857 | 829 ft | 27 kts | 298° |
| 2026-05-07 05:24 | 44.88785 | -93.24071 | 827 ft | 5 kts | 258° |
| 2026-05-07 05:24 | 44.88785 | -93.24073 | 827 ft | 0 kts | 258° |
| 2026-05-07 05:25 | 44.88784 | -93.24078 | 827 ft | 5 kts | 257° |
| 2026-05-07 05:26 | 44.88744 | -93.24206 | 830 ft | 16 kts | 202° |
| 2026-05-07 05:26 | 44.88518 | -93.24161 | 836 ft | 57 kts | 169° |
| 2026-05-07 05:26 | 44.88019 | -93.24056 | 872 ft | 83 kts | 173° |
| 2026-05-07 05:26 | 44.87422 | -93.23981 | 1004 ft | 89 kts | 180° |
| 2026-05-07 05:27 | 44.86804 | -93.23958 | 1210 ft | 85 kts | 185° |
| 2026-05-07 05:27 | 44.86215 | -93.24051 | 1393 ft | 85 kts | 184° |
| 2026-05-07 05:27 | 44.85646 | -93.24045 | 1621 ft | 81 kts | 177° |
| 2026-05-07 05:27 | 44.85081 | -93.23973 | 1805 ft | 82 kts | 170° |
| 2026-05-07 05:28 | 44.84517 | -93.23849 | 1971 ft | 84 kts | 178° |
| 2026-05-07 05:28 | 44.83942 | -93.23819 | 2158 ft | 82 kts | 181° |
| 2026-05-07 05:28 | 44.83365 | -93.23775 | 2332 ft | 83 kts | 179° |
| 2026-05-07 05:28 | 44.82777 | -93.23743 | 2500 ft | 85 kts | 177° |
| 2026-05-07 05:29 | 44.82189 | -93.23635 | 2687 ft | 85 kts | 175° |
| 2026-05-07 05:29 | 44.81596 | -93.23543 | 2844 ft | 87 kts | 175° |
| 2026-05-07 05:29 | 44.80998 | -93.23368 | 3007 ft | 89 kts | 171° |
| 2026-05-07 05:29 | 44.80394 | -93.23188 | 3175 ft | 90 kts | 171° |
| 2026-05-07 05:30 | 44.79777 | -93.23014 | 3337 ft | 91 kts | 170° |
| 2026-05-07 05:30 | 44.79137 | -93.22897 | 3447 ft | 96 kts | 178° |
| 2026-05-07 05:30 | 44.78427 | -93.22801 | 3481 ft | 107 kts | 174° |
| 2026-05-07 05:30 | 44.77689 | -93.22619 | 3449 ft | 107 kts | 171° |
| 2026-05-07 05:31 | 44.76956 | -93.22467 | 3423 ft | 106 kts | 177° |
| 2026-05-07 05:31 | 44.76230 | -93.22392 | 3414 ft | 104 kts | 180° |
| 2026-05-07 05:31 | 44.75484 | -93.22364 | 3432 ft | 110 kts | 182° |
| 2026-05-07 05:31 | 44.74740 | -93.22332 | 3562 ft | 108 kts | 177° |
| 2026-05-07 05:32 | 44.73914 | -93.22234 | 3458 ft | 120 kts | 177° |
| 2026-05-07 05:32 | 44.73071 | -93.22126 | 3486 ft | 119 kts | 178° |
| 2026-05-07 05:32 | 44.72238 | -93.22143 | 3462 ft | 122 kts | 187° |
| 2026-05-07 05:32 | 44.71388 | -93.22236 | 3493 ft | 121 kts | 186° |
| 2026-05-07 05:33 | 44.70522 | -93.22345 | 3429 ft | 125 kts | 188° |
| 2026-05-07 05:33 | 44.69681 | -93.22408 | 3318 ft | 136 kts | 184° |
| 2026-05-07 05:33 | 44.68804 | -93.22437 | 3445 ft | 121 kts | 183° |
| 2026-05-07 05:33 | 44.67969 | -93.22467 | 3475 ft | 120 kts | 185° |
| 2026-05-07 05:34 | 44.67108 | -93.22487 | 3437 ft | 123 kts | 183° |
| 2026-05-07 05:34 | 44.66261 | -93.22510 | 3463 ft | 121 kts | 184° |
| 2026-05-07 05:34 | 44.65416 | -93.22523 | 3474 ft | 121 kts | 182° |
| 2026-05-07 05:34 | 44.64562 | -93.22529 | 3456 ft | 124 kts | 183° |
| 2026-05-07 05:35 | 44.63709 | -93.22561 | 3488 ft | 121 kts | 184° |
| 2026-05-07 05:35 | 44.63025 | -93.22225 | 2965 ft | 131 kts | 110° |
| 2026-05-07 05:35 | 44.62751 | -93.21201 | 2787 ft | 93 kts | 140° |
| 2026-05-07 05:35 | 44.62282 | -93.21246 | 2541 ft | 73 kts | 267° |
| 2026-05-07 05:36 | 44.62565 | -93.21805 | 2101 ft | 88 kts | 328° |
| 2026-05-07 05:36 | 44.62398 | -93.21864 | 1383 ft | 107 kts | 52° |
| 2026-05-07 05:36 | 44.62258 | -93.21306 | 1160 ft | 75 kts | 235° |
| 2026-05-07 05:36 | 44.62431 | -93.21835 | 1021 ft | 62 kts | 294° |
| 2026-05-07 05:37 | 44.62588 | -93.22291 | 949 ft | 24 kts | 288° |
| 2026-05-07 05:37 | 44.62598 | -93.22334 | 950 ft | 0 kts | 277° |